Terminal Aerodrome Forecast
Issued by NWS

Home | Current Version | Previous Version | Text Only | Print | Product List | Glossary On
Versions: 1 2 3 4 5 6 7 8 9 10 11 12 13 14 15 16 17 18 19 20 21 22 23 24 25 26 27
982
FTUS43 KLSX 242321
TAFUIN
TAF
KUIN 242321Z 2500/2524 13012KT 3SM -RA BR OVC003
     FM250100 20005KT 1SM -RA BR OVC003
     FM250200 25010G23KT 1 1/2SM -RA BR OVC003
     FM250400 27018G29KT P6SM BKN008
     FM250700 27016G27KT P6SM BKN015
     FM250800 26014G25KT P6SM SCT015=

USA.gov is the U.S. government's official web portal to all federal, state and local government web resources and services.